Time;durP1;ratioP1;P1;durP2;ratioP2;P2;SDS_P1;SDS_P2;PMS_P1;PMS_P2;Temp;Humidity;BMP_temperature;BMP_pressure;BME280_temperature;BME280_humidity;BME280_pressure;Samples;Min_cycle;Max_cycle;Signal;HPM_P1;HPM_P2
2023/09/08 00:00:09;;;;;;;1999.90;999.90;;;;;;;15.44;100.00;94843.13;5007194;28;20204;-48
2023/09/08 00:02:34;;;;;;;1999.90;999.90;;;;;;;15.38;100.00;94835.91;5005871;28;20254;-48
2023/09/08 00:05:00;;;;;;;1999.90;999.90;;;;;;;15.32;100.00;94837.66;5006945;28;20223;-47
2023/09/08 00:07:25;;;;;;;1999.90;999.90;;;;;;;15.28;100.00;94832.28;5006857;28;20210;-51
2023/09/08 00:09:50;;;;;;;1999.90;999.90;;;;;;;15.20;100.00;94820.00;5006786;28;20284;-51
2023/09/08 00:12:16;;;;;;;1999.90;999.90;;;;;;;15.16;100.00;94807.56;5006409;28;20204;-46
2023/09/08 00:14:41;;;;;;;1999.90;999.90;;;;;;;15.06;100.00;94815.00;5006528;28;20212;-49
2023/09/08 00:17:07;;;;;;;1999.90;999.90;;;;;;;15.01;100.00;94801.78;5006136;28;20210;-48
2023/09/08 00:19:32;;;;;;;1999.90;999.90;;;;;;;15.00;100.00;94785.72;5006452;28;20207;-47
2023/09/08 00:21:58;;;;;;;1999.90;999.90;;;;;;;14.95;100.00;94778.84;5006233;28;20223;-53
2023/09/08 00:24:24;;;;;;;1999.90;999.90;;;;;;;14.93;100.00;94781.25;5006520;28;20223;-52
2023/09/08 00:26:49;;;;;;;1999.90;999.90;;;;;;;14.92;100.00;94776.19;5006173;28;20226;-49
2023/09/08 00:29:14;;;;;;;1999.90;999.90;;;;;;;14.88;100.00;94765.34;5006746;28;20168;-51
2023/09/08 00:31:41;;;;;;;1999.90;999.90;;;;;;;14.83;100.00;94779.63;5006297;28;20204;-52
2023/09/08 00:34:07;;;;;;;1999.90;999.90;;;;;;;14.81;100.00;94787.56;5006103;28;20212;-50
2023/09/08 00:36:33;;;;;;;1999.90;999.90;;;;;;;14.79;100.00;94779.00;5006501;28;20214;-51
2023/09/08 00:38:58;;;;;;;1999.90;999.90;;;;;;;14.80;100.00;94785.25;5006178;28;20208;-50
2023/09/08 00:41:24;;;;;;;1999.90;999.90;;;;;;;14.79;100.00;94790.00;5005952;28;20313;-48
2023/09/08 00:43:50;;;;;;;1999.90;999.90;;;;;;;14.81;100.00;94776.56;5005931;28;20231;-52
2023/09/08 00:46:17;;;;;;;1999.90;999.90;;;;;;;14.81;100.00;94771.06;5005716;28;20583;-51
2023/09/08 00:48:42;;;;;;;1999.90;999.90;;;;;;;14.82;100.00;94756.13;5005864;28;20227;-51
2023/09/08 00:51:09;;;;;;;1999.90;999.90;;;;;;;14.79;100.00;94757.00;5005688;28;20204;-50
2023/09/08 00:53:35;;;;;;;1999.90;999.90;;;;;;;14.74;100.00;94763.06;5005808;28;20391;-49
2023/09/08 00:56:02;;;;;;;1999.90;999.90;;;;;;;14.73;100.00;94764.28;5006004;28;20203;-52
2023/09/08 00:58:28;;;;;;;1999.90;999.90;;;;;;;14.73;100.00;94758.81;5005539;28;20227;-49
2023/09/08 01:00:53;;;;;;;1999.90;999.90;;;;;;;14.72;100.00;94757.25;5005485;28;20203;-52
2023/09/08 01:03:18;;;;;;;1999.90;999.90;;;;;;;14.70;100.00;94765.19;5005971;28;20208;-46
2023/09/08 01:05:46;;;;;;;1999.90;999.90;;;;;;;14.70;100.00;94767.94;5005727;28;20211;-49
2023/09/08 01:08:13;;;;;;;1999.90;999.90;;;;;;;14.67;100.00;94763.31;5005398;28;20204;-48
2023/09/08 01:10:41;;;;;;;1999.90;999.90;;;;;;;14.65;100.00;94767.72;5005372;28;20200;-52
2023/09/08 01:13:06;;;;;;;1999.90;999.90;;;;;;;14.67;100.00;94766.06;5005463;28;20213;-48
2023/09/08 01:15:31;;;;;;;1999.90;999.90;;;;;;;14.66;100.00;94756.28;5005259;28;20233;-53
2023/09/08 01:17:57;;;;;;;1999.90;999.90;;;;;;;14.62;100.00;94772.13;5021546;28;20262;-48
2023/09/08 01:20:30;;;;;;;1999.90;999.90;;;;;;;14.55;100.00;94777.88;5005319;28;20272;-50
2023/09/08 01:23:04;;;;;;;1999.90;999.90;;;;;;;14.54;100.00;94784.59;5005550;28;20202;-49
2023/09/08 01:25:31;;;;;;;1999.90;999.90;;;;;;;14.50;100.00;94777.66;5005492;28;20252;-49
2023/09/08 01:28:00;;;;;;;1999.90;999.90;;;;;;;14.48;100.00;94769.84;5005214;28;20200;-48
2023/09/08 01:30:27;;;;;;;1999.90;999.90;;;;;;;14.45;100.00;94770.75;5005455;28;20274;-47
2023/09/08 01:32:55;;;;;;;1999.90;999.90;;;;;;;14.38;100.00;94759.97;5005490;28;20243;-48
2023/09/08 01:35:20;;;;;;;1999.90;999.90;;;;;;;14.38;100.00;94759.22;5005063;28;20246;-50
2023/09/08 01:37:47;;;;;;;1999.90;999.90;;;;;;;14.35;100.00;94749.88;5004869;28;20195;-51
2023/09/08 01:40:13;;;;;;;1999.90;999.90;;;;;;;14.34;100.00;94758.56;5004921;28;20211;-52
2023/09/08 01:42:39;;;;;;;1999.90;999.90;;;;;;;14.34;100.00;94753.84;5004772;28;20200;-50
2023/09/08 01:45:06;;;;;;;1999.90;999.90;;;;;;;14.31;100.00;94749.22;5004591;28;20269;-48
2023/09/08 01:47:32;;;;;;;1999.90;999.90;;;;;;;14.31;100.00;94751.97;5005040;28;20500;-49
2023/09/08 01:49:57;;;;;;;1999.90;999.90;;;;;;;14.28;100.00;94744.59;5004893;28;20199;-50
2023/09/08 01:52:24;;;;;;;1999.90;999.90;;;;;;;14.27;100.00;94748.56;5004675;28;20243;-47
2023/09/08 01:54:49;;;;;;;1999.90;999.90;;;;;;;14.22;100.00;94746.41;5004455;28;20234;-47
2023/09/08 01:57:15;;;;;;;1999.90;999.90;;;;;;;14.23;100.00;94736.16;5004822;28;20457;-49
2023/09/08 01:59:40;;;;;;;1999.90;999.90;;;;;;;14.17;100.00;94744.16;5005020;28;20214;-50
2023/09/08 02:02:06;;;;;;;1999.90;999.90;;;;;;;14.17;100.00;94738.66;5004565;28;20398;-49
2023/09/08 02:04:31;;;;;;;1999.90;999.90;;;;;;;14.13;100.00;94738.00;5004471;28;20211;-51
2023/09/08 02:06:57;;;;;;;1999.90;999.90;;;;;;;14.11;100.00;94734.97;5004344;28;20229;-49
2023/09/08 02:09:36;;;;;;;1999.90;999.90;;;;;;;14.06;100.00;94730.00;5004556;28;20199;-47
2023/09/08 02:12:03;;;;;;;1999.90;999.90;;;;;;;14.02;100.00;94726.59;5004566;28;20206;-48
2023/09/08 02:14:28;;;;;;;1999.90;999.90;;;;;;;13.98;100.00;94736.94;5004506;28;20416;-47
2023/09/08 02:16:55;;;;;;;1999.90;999.90;;;;;;;13.97;100.00;94729.13;5004598;28;20207;-47
2023/09/08 02:19:20;;;;;;;1999.90;999.90;;;;;;;13.96;100.00;94728.38;5004427;28;20397;-54
2023/09/08 02:21:46;;;;;;;1999.90;999.90;;;;;;;13.94;100.00;94730.78;5004855;28;20183;-52
2023/09/08 02:24:11;;;;;;;1999.90;999.90;;;;;;;13.93;100.00;94721.03;5005811;28;20203;-52
2023/09/08 02:26:38;;;;;;;1999.90;999.90;;;;;;;13.90;100.00;94726.63;5011307;28;20254;-52
2023/09/08 02:29:03;;;;;;;1999.90;999.90;;;;;;;13.88;100.00;94726.31;5011247;28;20207;-49
2023/09/08 02:31:28;;;;;;;1999.90;999.90;;;;;;;13.85;100.00;94733.44;5011138;28;20207;-52
2023/09/08 02:33:54;;;;;;;1999.90;999.90;;;;;;;13.81;100.00;94727.31;5010845;28;20244;-50
2023/09/08 02:36:25;;;;;;;1999.90;999.90;;;;;;;13.76;100.00;94725.09;5010802;28;20203;-52
2023/09/08 02:38:51;;;;;;;1999.90;999.90;;;;;;;13.73;100.00;94719.72;5011544;28;20204;-50
2023/09/08 02:41:16;;;;;;;1999.90;999.90;;;;;;;13.73;100.00;94709.50;5010895;28;20207;-50
2023/09/08 02:43:42;;;;;;;1999.90;999.90;;;;;;;13.73;100.00;94695.78;5010661;28;20322;-47
2023/09/08 02:46:09;;;;;;;1999.90;999.90;;;;;;;13.73;100.00;94692.28;5010853;28;20215;-50
2023/09/08 02:48:34;;;;;;;1999.90;999.90;;;;;;;13.74;100.00;94689.09;5010765;28;20238;-50
2023/09/08 02:51:00;;;;;;;1999.90;999.90;;;;;;;13.70;100.00;94688.44;5010825;28;20180;-50
2023/09/08 02:53:28;;;;;;;1999.90;999.90;;;;;;;13.68;100.00;94685.38;5010919;28;20210;-52
2023/09/08 02:55:57;;;;;;;1999.90;999.90;;;;;;;13.65;100.00;94683.50;5027237;28;20203;-52
2023/09/08 02:58:22;;;;;;;1999.90;999.90;;;;;;;13.65;100.00;94682.75;5010318;28;20275;-52
2023/09/08 03:00:48;;;;;;;1999.90;999.90;;;;;;;13.64;100.00;94681.97;5010544;28;20206;-53
2023/09/08 03:03:14;;;;;;;1999.90;999.90;;;;;;;13.61;100.00;94690.28;5010977;28;20241;-50
2023/09/08 03:05:39;;;;;;;1999.90;999.90;;;;;;;13.60;100.00;94686.81;5010454;28;20211;-51
2023/09/08 03:08:05;;;;;;;1999.90;999.90;;;;;;;13.58;100.00;94683.72;5010539;28;20188;-48
2023/09/08 03:10:34;;;;;;;1999.90;999.90;;;;;;;13.60;100.00;94684.06;5010602;28;20196;-53
2023/09/08 03:13:00;;;;;;;1999.90;999.90;;;;;;;13.58;100.00;94691.94;5010227;28;20192;-51
2023/09/08 03:15:27;;;;;;;1999.90;999.90;;;;;;;13.55;100.00;94692.06;5010756;28;20204;-49
2023/09/08 03:17:54;;;;;;;1999.90;999.90;;;;;;;13.51;100.00;94700.41;5010742;28;20219;-47
2023/09/08 03:20:19;;;;;;;1999.90;999.90;;;;;;;13.47;100.00;94707.97;5010728;28;20180;-50
2023/09/08 03:22:45;;;;;;;1999.90;999.90;;;;;;;13.46;100.00;94705.66;5010817;28;20204;-48
2023/09/08 03:25:10;;;;;;;1999.90;999.90;;;;;;;13.45;100.00;94713.13;5010196;28;20222;-53
2023/09/08 03:27:35;;;;;;;1999.90;999.90;;;;;;;13.44;100.00;94708.09;5010693;28;20278;-50
2023/09/08 03:30:01;;;;;;;1999.90;999.90;;;;;;;13.43;100.00;94712.03;5010326;28;20203;-48
2023/09/08 03:32:28;;;;;;;1999.90;999.90;;;;;;;13.36;100.00;94723.97;5010195;28;20204;-50
2023/09/08 03:34:54;;;;;;;1999.90;999.90;;;;;;;13.39;100.00;94723.09;5010187;28;20522;-50
2023/09/08 03:37:19;;;;;;;1999.90;999.90;;;;;;;13.35;100.00;94722.44;5006447;28;20203;-50
2023/09/08 03:39:44;;;;;;;1999.90;999.90;;;;;;;13.35;100.00;94722.44;5007220;28;20221;-47
2023/09/08 03:42:10;;;;;;;1999.90;999.90;;;;;;;13.32;100.00;94717.81;5007184;28;20199;-49
2023/09/08 03:44:35;;;;;;;1999.90;999.90;;;;;;;13.30;100.00;94714.78;5007115;28;20219;-48
2023/09/08 03:47:02;;;;;;;1999.90;999.90;;;;;;;13.29;100.00;94703.03;5006719;28;20211;-47
2023/09/08 03:49:27;;;;;;;1999.90;999.90;;;;;;;13.28;100.00;94704.25;5007416;28;20192;-46
2023/09/08 03:51:53;;;;;;;1999.90;999.90;;;;;;;13.25;100.00;94710.59;5006862;28;20208;-49
2023/09/08 03:54:18;;;;;;;1999.90;999.90;;;;;;;13.25;100.00;94707.06;5007477;28;20202;-47
2023/09/08 03:56:43;;;;;;;1999.90;999.90;;;;;;;13.25;100.00;94707.06;5007312;28;20278;-48
2023/09/08 03:59:09;;;;;;;1999.90;999.90;;;;;;;13.20;100.00;94704.88;5006492;28;20210;-48
2023/09/08 04:01:34;;;;;;;1999.90;999.90;;;;;;;13.17;100.00;94705.75;5006887;28;20204;-49
2023/09/08 04:03:59;;;;;;;1999.90;999.90;;;;;;;13.11;100.00;94713.75;5006676;28;20203;-51
2023/09/08 04:06:25;;;;;;;1999.90;999.90;;;;;;;13.10;100.00;94705.94;5006722;28;20226;-48
2023/09/08 04:08:50;;;;;;;1999.90;999.90;;;;;;;13.05;100.00;94704.50;5006645;28;20246;-48
2023/09/08 04:11:15;;;;;;;1999.90;999.90;;;;;;;13.05;100.00;94703.75;5006602;28;20518;-48
2023/09/08 04:13:41;;;;;;;1999.90;999.90;;;;;;;13.04;100.00;94700.22;5023108;28;20216;-50
2023/09/08 04:16:06;;;;;;;1999.90;999.90;;;;;;;13.04;100.00;94696.75;5006642;28;20200;-49
2023/09/08 04:18:31;;;;;;;1999.90;999.90;;;;;;;13.01;100.00;94698.34;5006718;28;20199;-50
2023/09/08 04:20:56;;;;;;;1999.90;999.90;;;;;;;13.00;100.00;94691.34;5006739;28;20208;-47
2023/09/08 04:23:22;;;;;;;1999.90;999.90;;;;;;;12.97;100.00;94703.16;5006806;28;20207;-51
2023/09/08 04:25:47;;;;;;;1999.90;999.90;;;;;;;12.99;100.00;94689.03;5006290;28;20220;-49
2023/09/08 04:28:12;;;;;;;1999.90;999.90;;;;;;;12.98;100.00;94682.81;5006587;28;20207;-48
2023/09/08 04:30:38;;;;;;;1999.90;999.90;;;;;;;13.01;100.00;94681.16;5006244;28;20211;-47
2023/09/08 04:33:04;;;;;;;1999.90;999.90;;;;;;;12.99;100.00;94681.59;5005848;28;20207;-50
2023/09/08 04:35:29;;;;;;;1999.90;999.90;;;;;;;12.95;100.00;94677.38;5005976;28;20271;-48
2023/09/08 04:37:55;;;;;;;1999.90;999.90;;;;;;;12.97;100.00;94680.47;5006110;28;20225;-47
2023/09/08 04:40:20;;;;;;;1999.90;999.90;;;;;;;12.99;100.00;94687.06;5006135;28;20215;-50
2023/09/08 04:42:45;;;;;;;1999.90;999.90;;;;;;;13.03;100.00;94695.19;5022221;28;20204;-52
2023/09/08 04:45:10;;;;;;;1999.90;999.90;;;;;;;13.05;100.00;94692.78;5005780;28;20287;-47
2023/09/08 04:47:37;;;;;;;1999.90;999.90;;;;;;;13.08;100.00;94697.41;5022276;28;20207;-49
2023/09/08 04:50:03;;;;;;;1999.90;999.90;;;;;;;13.10;100.00;94692.25;5006062;28;20202;-48
2023/09/08 04:52:28;;;;;;;1999.90;999.90;;;;;;;13.19;100.00;94692.38;5005669;28;20184;-52
2023/09/08 04:54:54;;;;;;;1999.90;999.90;;;;;;;13.31;100.00;94688.88;5006351;28;20211;-47
2023/09/08 04:57:19;;;;;;;1999.90;999.90;;;;;;;13.53;100.00;94695.25;5005951;28;20367;-48
2023/09/08 04:59:44;;;;;;;1999.90;999.90;;;;;;;13.78;100.00;94706.22;5006047;28;20207;-49
2023/09/08 05:02:10;;;;;;;1999.90;999.90;;;;;;;14.09;100.00;94742.84;5005857;28;20254;-49
2023/09/08 05:04:35;;;;;;;1999.90;999.90;;;;;;;14.43;100.00;94795.16;5005511;28;20279;-48
2023/09/08 05:07:00;;;;;;;1999.90;999.90;;;;;;;14.83;100.00;94862.09;5005502;28;20201;-51
2023/09/08 05:09:26;;;;;;;1999.90;999.90;;;;;;;15.12;100.00;94978.22;5005785;28;20202;-52
2023/09/08 05:11:51;;;;;;;1999.90;999.90;;;;;;;15.48;100.00;95094.22;5005166;28;20219;-48
2023/09/08 05:14:16;;;;;;;1999.90;999.90;;;;;;;15.73;100.00;95209.84;5005504;28;20196;-50
2023/09/08 05:16:46;;;;;;;1999.90;999.90;;;;;;;16.00;100.00;95294.78;5005250;28;20192;-48
2023/09/08 05:19:13;;;;;;;1999.90;999.90;;;;;;;16.35;100.00;95363.34;5005730;28;20206;-46
2023/09/08 05:21:39;;;;;;;1999.90;999.90;;;;;;;16.76;100.00;95416.88;5005334;28;20206;-50
2023/09/08 05:24:05;;;;;;;1999.90;999.90;;;;;;;16.99;100.00;95477.22;5005664;28;20187;-47
2023/09/08 05:26:31;;;;;;;1999.90;999.90;;;;;;;17.26;100.00;95505.16;5005549;28;20220;-49
2023/09/08 05:28:56;;;;;;;1999.90;999.90;;;;;;;17.70;100.00;95535.25;5005379;28;20200;-50
2023/09/08 05:31:21;;;;;;;1999.90;999.90;;;;;;;17.94;100.00;95546.69;5005278;28;20203;-48
2023/09/08 05:33:47;;;;;;;1999.90;999.90;;;;;;;18.16;100.00;95566.84;5005004;28;20319;-52
2023/09/08 05:36:12;;;;;;;1999.90;999.90;;;;;;;18.57;100.00;95567.34;5004705;28;20204;-54
2023/09/08 05:38:37;;;;;;;1999.90;999.90;;;;;;;18.96;100.00;95582.53;5005190;28;20202;-47
2023/09/08 05:41:03;;;;;;;1999.90;999.90;;;;;;;19.29;100.00;95597.50;5004788;28;20195;-51
2023/09/08 05:43:28;;;;;;;1999.90;999.90;;;;;;;19.61;100.00;95593.47;5005032;28;20192;-48
2023/09/08 05:45:53;;;;;;;1999.90;999.90;;;;;;;19.90;100.00;95602.97;5004594;28;20215;-52
2023/09/08 05:48:19;;;;;;;1999.90;999.90;;;;;;;20.24;100.00;95611.06;5004886;28;20221;-49
2023/09/08 05:50:44;;;;;;;1999.90;999.90;;;;;;;20.42;100.00;95615.84;5004875;28;20268;-53
2023/09/08 05:53:10;;;;;;;1999.90;999.90;;;;;;;20.63;100.00;95615.72;5005100;28;20196;-52
2023/09/08 05:55:35;;;;;;;1999.90;999.90;;;;;;;20.92;100.00;95618.84;5004760;28;20215;-52
2023/09/08 05:58:00;;;;;;;1999.90;999.90;;;;;;;21.31;100.00;95615.03;5005218;28;20280;-48
2023/09/08 06:00:26;;;;;;;1999.90;999.90;;;;;;;21.72;100.00;95619.88;5003913;28;20199;-48
2023/09/08 06:02:51;;;;;;;1999.90;999.90;;;;;;;22.13;100.00;95621.84;5004466;28;20203;-46
2023/09/08 06:05:17;;;;;;;1999.90;999.90;;;;;;;22.13;100.00;95624.63;5004372;28;20223;-45
2023/09/08 06:07:42;;;;;;;1999.90;999.90;;;;;;;22.48;100.00;95639.56;5005006;28;20203;-47
2023/09/08 06:10:08;;;;;;;1999.90;999.90;;;;;;;22.94;100.00;95636.44;5004409;28;20311;-48
2023/09/08 06:12:33;;;;;;;1999.90;999.90;;;;;;;23.43;100.00;95636.59;5004352;28;20250;-49
2023/09/08 06:14:58;;;;;;;1999.90;999.90;;;;;;;23.65;100.00;95631.41;5004328;28;20204;-47
2023/09/08 06:17:24;;;;;;;1999.90;999.90;;;;;;;24.57;100.00;95633.28;5020922;28;20199;-48
2023/09/08 06:19:49;;;;;;;1999.90;999.90;;;;;;;24.90;100.00;95625.34;5004688;28;20196;-47
2023/09/08 06:22:15;;;;;;;1999.90;999.90;;;;;;;25.62;100.00;95628.88;5004222;28;20200;-48
2023/09/08 06:24:40;;;;;;;1999.90;999.90;;;;;;;26.26;100.00;95629.91;5003892;28;20215;-49
2023/09/08 06:27:06;;;;;;;1999.90;999.90;;;;;;;26.33;100.00;95621.03;5004224;28;20176;-48
2023/09/08 06:29:31;;;;;;;1999.90;999.90;;;;;;;26.38;100.00;95623.13;5004634;28;20199;-46
2023/09/08 06:31:56;;;;;;;1999.90;999.90;;;;;;;26.69;100.00;95631.44;5004378;28;20243;-47
2023/09/08 06:34:22;;;;;;;1999.90;999.90;;;;;;;27.09;100.00;95619.13;5004246;28;20206;-46
2023/09/08 06:36:48;;;;;;;1999.90;999.90;;;;;;;26.78;100.00;95622.84;5004466;28;20199;-45
2023/09/08 06:39:13;;;;;;;1999.90;999.90;;;;;;;26.99;100.00;95624.19;5004220;28;20211;-47
2023/09/08 06:41:39;;;;;;;1999.90;999.90;;;;;;;27.20;100.00;95636.75;5020574;28;20195;-47
2023/09/08 06:44:05;;;;;;;1999.90;999.90;;;;;;;27.27;100.00;95629.88;5004061;28;20196;-48
2023/09/08 06:46:30;;;;;;;1999.90;999.90;;;;;;;27.84;100.00;95633.84;5003895;28;20231;-47
2023/09/08 06:48:56;;;;;;;1999.90;999.90;;;;;;;28.23;100.00;95631.75;5004172;28;20263;-48
2023/09/08 06:51:21;;;;;;;1999.90;999.90;;;;;;;29.02;100.00;95638.75;5020407;28;20184;-47
2023/09/08 06:53:55;;;;;;;1999.90;999.90;;;;;;;29.44;100.00;95641.84;5004028;28;20203;-49
2023/09/08 06:56:20;;;;;;;1999.90;999.90;;;;;;;29.69;100.00;95645.56;5004570;28;20168;-46
2023/09/08 06:58:46;;;;;;;1999.90;999.90;;;;;;;29.45;100.00;95643.38;5003824;28;20238;-48
2023/09/08 07:01:11;;;;;;;1999.90;999.90;;;;;;;29.67;100.00;95639.66;5004353;28;20196;-46
2023/09/08 07:03:36;;;;;;;1999.90;999.90;;;;;;;29.99;100.00;95635.06;5004193;28;20203;-46
2023/09/08 07:06:03;;;;;;;1999.90;999.90;;;;;;;29.40;100.00;95634.97;5003894;28;20230;-48
2023/09/08 07:08:28;;;;;;;1999.90;999.90;;;;;;;30.16;100.00;95632.91;5004029;28;20223;-45
2023/09/08 07:10:54;;;;;;;1999.90;999.90;;;;;;;30.26;100.00;95642.56;5005490;28;20196;-45
2023/09/08 07:13:19;;;;;;;1999.90;999.90;;;;;;;30.44;100.00;95641.84;5007980;28;20266;-44
2023/09/08 07:15:44;;;;;;;1999.90;999.90;;;;;;;30.84;100.00;95636.06;5007472;28;20200;-47
2023/09/08 07:18:10;;;;;;;1999.90;999.90;;;;;;;30.38;100.00;95639.09;5007317;28;20199;-47
2023/09/08 07:20:35;;;;;;;1999.90;999.90;;;;;;;30.76;100.00;95640.00;5007885;28;20195;-47
2023/09/08 07:23:00;;;;;;;1999.90;999.90;;;;;;;30.96;100.00;95637.44;5007907;28;20200;-51
2023/09/08 07:25:26;;;;;;;1999.90;999.90;;;;;;;31.29;99.46;95630.66;5007136;28;20215;-50
2023/09/08 07:27:53;;;;;;;1999.90;999.90;;;;;;;31.09;100.00;95634.72;5007299;28;20212;-46
2023/09/08 07:30:21;;;;;;;1999.90;999.90;;;;;;;31.71;96.30;95637.50;5007627;28;20196;-45
2023/09/08 07:32:47;;;;;;;1999.90;999.90;;;;;;;31.80;93.13;95637.13;5007282;28;20200;-46
2023/09/08 07:35:14;;;;;;;1999.90;999.90;;;;;;;31.90;91.98;95633.34;5023449;28;20207;-46
2023/09/08 07:37:40;;;;;;;1999.90;999.90;;;;;;;30.90;94.47;95628.31;5007799;28;20192;-47
2023/09/08 07:40:09;;;;;;;1999.90;999.90;;;;;;;31.90;92.17;95630.53;5006754;28;20203;-48
2023/09/08 07:42:35;;;;;;;1999.90;999.90;;;;;;;31.60;94.75;95629.94;5007219;28;20202;-46
2023/09/08 07:45:00;;;;;;;1999.90;999.90;;;;;;;32.34;89.96;95641.13;5007268;28;20211;-47
2023/09/08 07:47:25;;;;;;;1999.90;999.90;;;;;;;31.83;92.21;95633.97;5007025;28;20221;-46
2023/09/08 07:49:51;;;;;;;1999.90;999.90;;;;;;;31.85;95.40;95631.38;5007333;28;20196;-45
2023/09/08 07:52:16;;;;;;;1999.90;999.90;;;;;;;32.19;95.10;95632.34;5006813;28;20192;-48
2023/09/08 07:54:42;;;;;;;1999.90;999.90;;;;;;;32.24;90.48;95640.00;5023149;28;20203;-47
2023/09/08 07:57:07;;;;;;;1999.90;999.90;;;;;;;32.52;88.93;95643.13;5007094;28;20203;-46
2023/09/08 07:59:32;;;;;;;1999.90;999.90;;;;;;;33.04;86.17;95643.19;5006895;28;20196;-48
2023/09/08 08:01:58;;;;;;;1999.90;999.90;;;;;;;33.90;81.64;95650.88;5007173;28;20202;-46
2023/09/08 08:04:23;;;;;;;1999.90;999.90;;;;;;;34.44;77.42;95650.88;5006489;28;20199;-50
2023/09/08 08:06:49;;;;;;;1999.90;999.90;;;;;;;34.96;73.49;95645.56;5006734;28;20274;-49
2023/09/08 08:09:14;;;;;;;1999.90;999.90;;;;;;;35.19;71.67;95649.31;5006920;28;20246;-47
2023/09/08 08:11:40;;;;;;;1999.90;999.90;;;;;;;36.19;67.20;95641.34;5006586;28;20191;-45
2023/09/08 08:14:05;;;;;;;1999.90;999.90;;;;;;;36.27;64.46;95642.19;5006475;28;20258;-47
2023/09/08 08:16:30;;;;;;;1999.90;999.90;;;;;;;36.67;63.97;95643.13;5006613;28;20218;-48
2023/09/08 08:18:56;;;;;;;1999.90;999.90;;;;;;;36.77;60.07;95641.22;5006453;28;20196;-46
2023/09/08 08:21:22;;;;;;;1999.90;999.90;;;;;;;36.73;61.55;95640.84;5006371;28;20259;-47
2023/09/08 08:23:48;;;;;;;1999.90;999.90;;;;;;;34.58;72.12;95640.94;5005794;28;20199;-45
2023/09/08 08:26:14;;;;;;;1999.90;999.90;;;;;;;34.91;72.57;95637.22;5005948;28;20219;-46
2023/09/08 08:28:39;;;;;;;1999.90;999.90;;;;;;;34.91;70.96;95637.22;5006595;28;20211;-46
2023/09/08 08:31:04;;;;;;;1999.90;999.90;;;;;;;34.56;72.51;95629.38;5006541;28;20199;-46
2023/09/08 08:33:30;;;;;;;1999.90;999.90;;;;;;;34.69;73.18;95638.56;5006651;28;20222;-45
2023/09/08 08:35:56;;;;;;;1999.90;999.90;;;;;;;35.19;73.07;95631.50;5006000;28;20200;-45
2023/09/08 08:38:21;;;;;;;1999.90;999.90;;;;;;;35.80;69.79;95636.16;5005875;28;20200;-45
2023/09/08 08:40:47;;;;;;;1999.90;999.90;;;;;;;35.83;67.17;95635.03;5006070;28;20206;-50
2023/09/08 08:43:12;;;;;;;1999.90;999.90;;;;;;;35.73;68.27;95631.19;5005925;28;20200;-47
2023/09/08 08:45:41;;;;;;;1999.90;999.90;;;;;;;35.44;68.43;95626.91;5005749;28;20218;-50
2023/09/08 08:48:08;;;;;;;1999.90;999.90;;;;;;;35.16;70.34;95635.47;5005776;28;20191;-50
2023/09/08 08:50:34;;;;;;;1999.90;999.90;;;;;;;34.50;75.88;95637.28;5005892;28;20204;-50
2023/09/08 08:53:01;;;;;;;1999.90;999.90;;;;;;;35.81;71.34;95623.47;5006069;28;20191;-46
2023/09/08 08:55:29;;;;;;;1999.90;999.90;;;;;;;37.03;64.11;95626.56;5022119;28;20226;-46
2023/09/08 08:58:00;;;;;;;1999.90;999.90;;;;;;;37.18;61.84;95622.94;5005782;28;20247;-45
2023/09/08 09:00:26;;;;;;;1999.90;999.90;;;;;;;36.28;65.73;95621.69;5005702;28;20191;-45
2023/09/08 09:02:53;;;;;;;1999.90;999.90;;;;;;;35.90;68.93;95617.25;5005738;28;20195;-47
2023/09/08 09:05:19;;;;;;;1999.90;999.90;;;;;;;35.55;69.63;95620.91;5005648;28;20215;-46
2023/09/08 09:07:44;;;;;;;1999.90;999.90;;;;;;;35.91;69.62;95618.75;5005530;28;20219;-45
2023/09/08 09:10:10;;;;;;;1999.90;999.90;;;;;;;35.83;72.18;95626.50;5005281;28;20275;-46
2023/09/08 09:12:37;;;;;;;1999.90;999.90;;;;;;;35.66;73.01;95614.88;5005490;28;20194;-51
2023/09/08 09:15:04;;;;;;;1999.90;999.90;;;;;;;35.58;73.30;95614.81;5005442;28;20203;-52
2023/09/08 09:17:32;;;;;;;1999.90;999.90;;;;;;;34.94;75.15;95614.16;5005477;28;20226;-47
2023/09/08 09:20:24;;;;;;;1999.90;999.90;;;;;;;34.75;76.14;95616.47;5004961;28;20191;-46
2023/09/08 09:22:49;;;;;;;1999.90;999.90;;;;;;;35.40;73.78;95603.78;5001338;28;20214;-47
2023/09/08 09:25:23;;;;;;;1999.90;999.90;;;;;;;35.36;72.47;95609.06;5005137;28;20235;-46
2023/09/08 09:27:57;;;;;;;1999.90;999.90;;;;;;;34.44;81.05;95611.13;5005189;28;20204;-46
2023/09/08 09:30:23;;;;;;;1999.90;999.90;;;;;;;34.97;77.62;95615.09;5004978;28;20219;-46
2023/09/08 09:32:58;;;;;;;1999.90;999.90;;;;;;;34.50;77.65;95608.88;5005412;28;20282;-48
2023/09/08 09:35:46;;;;;;;1999.90;999.90;;;;;;;34.61;75.94;95614.25;5004078;28;20270;-46
2023/09/08 09:38:11;;;;;;;1999.90;999.90;;;;;;;34.89;77.12;95606.56;5004980;28;20202;-48
2023/09/08 09:40:37;;;;;;;1999.90;999.90;;;;;;;34.65;79.52;95604.09;5004791;28;20180;-48
2023/09/08 09:43:04;;;;;;;1999.90;999.90;;;;;;;34.16;84.19;95605.38;5005150;28;20320;-45
2023/09/08 09:45:30;;;;;;;1999.90;999.90;;;;;;;34.42;82.29;95602.41;5005056;28;20208;-45
2023/09/08 09:47:56;;;;;;;1999.90;999.90;;;;;;;34.33;81.14;95605.75;5004977;28;20207;-46
2023/09/08 09:50:35;;;;;;;1999.90;999.90;;;;;;;34.47;79.31;95595.81;5004881;28;20274;-46
2023/09/08 09:53:07;;;;;;;1999.90;999.90;;;;;;;35.23;76.43;95589.28;5005248;28;20270;-45
2023/09/08 09:55:34;;;;;;;1999.90;999.90;;;;;;;35.12;75.12;95589.59;5004513;28;20199;-45
2023/09/08 09:58:03;;;;;;;1999.90;999.90;;;;;;;35.35;75.75;95593.31;5004491;28;20204;-46
2023/09/08 10:00:29;;;;;;;1999.90;999.90;;;;;;;35.46;73.42;95595.81;5004474;28;20200;-47
2023/09/08 10:02:55;;;;;;;1999.90;999.90;;;;;;;35.31;72.89;95590.09;5004551;28;20223;-50
2023/09/08 10:05:21;;;;;;;1999.90;999.90;;;;;;;34.75;77.34;95590.13;5004383;28;20212;-47
2023/09/08 10:07:48;;;;;;;1999.90;999.90;;;;;;;34.56;77.91;95593.22;5004882;28;20275;-47
2023/09/08 10:10:15;;;;;;;1999.90;999.90;;;;;;;35.01;74.17;95584.25;5005068;28;20199;-45
2023/09/08 10:12:45;;;;;;;1999.90;999.90;;;;;;;35.53;72.92;95584.50;5004387;28;20206;-44
2023/09/08 10:15:11;;;;;;;1999.90;999.90;;;;;;;35.63;71.80;95576.94;5004670;28;20198;-45
2023/09/08 10:17:37;;;;;;;1999.90;999.90;;;;;;;35.80;68.93;95579.28;5004125;28;20230;-46
2023/09/08 10:20:11;;;;;;;1999.90;999.90;;;;;;;35.40;73.69;95566.84;5004241;28;20191;-48
2023/09/08 10:22:39;;;;;;;1999.90;999.90;;;;;;;36.14;67.33;95579.69;5004117;28;20206;-46
2023/09/08 10:25:06;;;;;;;1999.90;999.90;;;;;;;35.54;71.16;95574.63;5004119;28;20207;-50
2023/09/08 10:27:32;;;;;;;1999.90;999.90;;;;;;;35.56;71.44;95571.22;5004561;28;20207;-46
2023/09/08 10:30:01;;;;;;;1999.90;999.90;;;;;;;34.58;74.61;95581.31;5004068;28;20192;-48
2023/09/08 10:32:27;;;;;;;1999.90;999.90;;;;;;;35.08;77.72;95567.25;5004283;28;20187;-49
2023/09/08 10:34:54;;;;;;;1999.90;999.90;;;;;;;34.80;76.23;95575.00;5004110;28;20211;-46
2023/09/08 10:37:20;;;;;;;1999.90;999.90;;;;;;;34.10;81.84;95582.06;5004477;28;20207;-44
2023/09/08 10:39:45;;;;;;;1999.90;999.90;;;;;;;34.45;81.51;95567.97;5004483;28;20253;-46
2023/09/08 10:42:17;;;;;;;1999.90;999.90;;;;;;;33.60;86.82;95574.75;5003903;28;20199;-45
2023/09/08 10:44:51;;;;;;;1999.90;999.90;;;;;;;33.71;87.74;95569.56;5020031;28;20211;-45